createdAt,value
2018-01-25T00:00:25.960Z,92.60
2018-01-25T00:02:53.385Z,92.70
2018-01-25T00:05:20.852Z,92.60
2018-01-25T00:07:48.513Z,92.70
2018-01-25T00:10:15.949Z,92.90
2018-01-25T00:12:43.880Z,93.10
2018-01-25T00:15:12.095Z,93.50
2018-01-25T00:17:39.526Z,93.50
2018-01-25T00:20:07.793Z,93.60
2018-01-25T00:22:35.998Z,93.90
2018-01-25T00:25:03.445Z,93.80
2018-01-25T00:27:30.884Z,93.70
2018-01-25T00:29:59.096Z,94.00
2018-01-25T00:32:26.537Z,94.00
2018-01-25T00:34:54.046Z,94.10
2018-01-25T00:37:25.010Z,94.10
2018-01-25T00:39:53.222Z,94.50
2018-01-25T00:42:20.652Z,94.50
2018-01-25T00:44:48.129Z,94.50
2018-01-25T00:47:15.570Z,94.60
2018-01-25T00:49:44.703Z,94.30
2018-01-25T00:52:12.136Z,94.30
2018-01-25T00:54:39.574Z,94.50
2018-01-25T00:57:07.808Z,95.50
2018-01-25T00:59:35.265Z,95.40
2018-01-25T01:02:02.701Z,95.60
2018-01-25T01:04:30.172Z,96.00
2018-01-25T01:06:57.617Z,95.60
2018-01-25T01:09:25.050Z,95.90
2018-01-25T01:11:52.489Z,96.20
2018-01-25T01:14:20.715Z,97.30
2018-01-25T01:16:48.190Z,97.30
2018-01-25T01:19:15.624Z,97.80
2018-01-25T01:21:43.977Z,99.20
2018-01-25T01:24:11.420Z,99.30
2018-01-25T01:26:38.865Z,99.90
2018-01-25T01:29:06.308Z,99.90
2018-01-25T01:31:33.748Z,99.90
2018-01-25T01:34:01.945Z,99.90
2018-01-25T01:36:29.372Z,99.90
2018-01-25T01:38:56.825Z,99.90
2018-01-25T01:41:24.272Z,99.50
2018-01-25T01:43:51.719Z,99.90
2018-01-25T01:46:19.158Z,99.80
2018-01-25T01:48:47.413Z,99.60
2018-01-25T01:51:14.852Z,99.60
2018-01-25T01:53:42.288Z,99.90
2018-01-25T01:56:09.788Z,99.90
2018-01-25T01:58:37.220Z,99.90
2018-01-25T02:01:04.667Z,99.40
2018-01-25T02:03:32.106Z,99.50
2018-01-25T02:05:59.552Z,99.40
2018-01-25T02:08:26.980Z,99.40
2018-01-25T02:10:55.183Z,99.90
2018-01-25T02:13:22.622Z,99.90
2018-01-25T02:15:50.833Z,99.90
2018-01-25T02:18:18.290Z,99.90
2018-01-25T02:20:45.752Z,99.90
2018-01-25T02:23:14.008Z,99.70
2018-01-25T02:25:41.468Z,99.80
2018-01-25T02:28:08.997Z,99.90
2018-01-25T02:30:36.430Z,99.80
2018-01-25T02:33:03.854Z,99.00
2018-01-25T02:35:31.300Z,99.10
2018-01-25T02:37:58.733Z,99.40
2018-01-25T02:40:26.956Z,98.60
2018-01-25T02:42:54.389Z,98.60
2018-01-25T02:45:21.829Z,99.00
2018-01-25T02:47:50.054Z,98.90
2018-01-25T02:50:17.509Z,98.90
2018-01-25T02:52:44.973Z,98.70
2018-01-25T02:55:12.415Z,98.60
2018-01-25T02:57:39.862Z,98.20
2018-01-25T03:00:07.322Z,99.00
2018-01-25T03:02:34.769Z,98.70
2018-01-25T03:05:02.206Z,99.10
2018-01-25T03:07:30.405Z,99.60
2018-01-25T03:09:57.875Z,99.50
2018-01-25T03:12:25.339Z,99.40
2018-01-25T03:14:52.755Z,99.30
2018-01-25T03:17:20.209Z,99.10
2018-01-25T03:19:47.648Z,98.40
2018-01-25T03:22:15.077Z,98.20
2018-01-25T03:24:42.511Z,97.80
2018-01-25T03:27:09.964Z,97.60
2018-01-25T03:29:37.412Z,97.80
2018-01-25T03:32:04.863Z,97.70
2018-01-25T03:34:32.313Z,97.70
2018-01-25T03:37:00.908Z,97.90
2018-01-25T03:39:28.336Z,97.90
2018-01-25T03:41:56.568Z,98.40
2018-01-25T03:44:24.005Z,98.20
2018-01-25T03:46:51.444Z,98.20
2018-01-25T03:49:19.648Z,98.80
2018-01-25T03:51:47.080Z,98.70
2018-01-25T03:54:14.524Z,98.30
2018-01-25T03:56:42.727Z,97.70
2018-01-25T03:59:10.156Z,97.70
2018-01-25T04:01:38.376Z,97.10
2018-01-25T04:04:06.253Z,97.00
2018-01-25T04:06:33.689Z,97.10
2018-01-25T04:09:01.164Z,97.00
2018-01-25T04:11:28.642Z,96.10
2018-01-25T04:13:56.076Z,97.10
2018-01-25T04:16:23.513Z,96.80
2018-01-25T04:18:50.968Z,97.10
2018-01-25T04:21:18.405Z,97.20
2018-01-25T04:23:46.665Z,97.90
2018-01-25T04:26:14.109Z,97.90
2018-01-25T04:28:41.533Z,97.40
2018-01-25T04:31:08.965Z,97.20
2018-01-25T04:33:36.408Z,97.00
2018-01-25T04:36:04.619Z,97.20
2018-01-25T04:38:32.049Z,97.20
2018-01-25T04:41:00.251Z,97.20
2018-01-25T04:43:27.724Z,97.20
2018-01-25T04:45:55.179Z,97.40
2018-01-25T04:48:22.613Z,97.30
2018-01-25T04:50:50.047Z,97.40
2018-01-25T04:53:18.245Z,97.60
2018-01-25T04:55:45.687Z,97.60
2018-01-25T04:58:13.876Z,97.70
2018-01-25T05:00:41.346Z,97.60
2018-01-25T05:03:08.751Z,97.40
2018-01-25T05:05:36.176Z,97.00
2018-01-25T05:08:03.632Z,97.40
2018-01-25T05:10:31.064Z,97.00
2018-01-25T05:12:58.519Z,97.30
2018-01-25T05:15:25.957Z,96.90
2018-01-25T05:17:58.715Z,96.90
2018-01-25T05:20:26.157Z,96.90
2018-01-25T05:22:53.608Z,96.80
2018-01-25T05:25:21.043Z,96.50
2018-01-25T05:27:48.472Z,96.40
2018-01-25T05:30:16.665Z,97.00
2018-01-25T05:32:44.472Z,97.00
2018-01-25T05:35:11.927Z,97.20
2018-01-25T05:37:39.348Z,96.80
2018-01-25T05:40:06.772Z,96.60
2018-01-25T05:42:34.968Z,96.30
2018-01-25T05:45:02.422Z,96.20
2018-01-25T05:47:30.620Z,96.60
2018-01-25T05:49:58.064Z,96.60
2018-01-25T05:52:25.497Z,96.30
2018-01-25T05:54:53.692Z,96.20
2018-01-25T05:57:21.124Z,96.20
2018-01-25T05:59:49.336Z,96.60
2018-01-25T06:02:16.768Z,96.50
2018-01-25T06:04:44.521Z,96.40
2018-01-25T06:07:11.958Z,95.80
2018-01-25T06:09:39.396Z,95.50
2018-01-25T06:12:07.605Z,95.30
2018-01-25T06:14:35.033Z,95.30
2018-01-25T06:17:02.486Z,95.10
2018-01-25T06:19:29.913Z,95.50
2018-01-25T06:21:57.369Z,95.70
2018-01-25T06:24:25.551Z,95.40
2018-01-25T06:26:52.984Z,95.30
2018-01-25T06:29:21.184Z,95.10
2018-01-25T06:31:48.636Z,95.10
2018-01-25T06:34:16.099Z,95.30
2018-01-25T06:36:44.458Z,95.60
2018-01-25T06:39:12.654Z,95.00
2018-01-25T06:41:40.109Z,95.00
2018-01-25T06:44:07.541Z,95.00
2018-01-25T06:46:35.733Z,95.30
2018-01-25T06:49:03.194Z,95.30
2018-01-25T06:51:30.629Z,95.50
2018-01-25T06:53:58.852Z,95.20
2018-01-25T06:56:26.268Z,95.20
2018-01-25T06:58:53.701Z,94.80
2018-01-25T07:01:21.136Z,94.70
2018-01-25T07:03:48.577Z,95.00
2018-01-25T07:06:16.026Z,94.90
2018-01-25T07:08:43.453Z,94.60
2018-01-25T07:11:10.893Z,94.80
2018-01-25T07:13:39.105Z,95.00
2018-01-25T07:16:06.533Z,95.00
2018-01-25T07:18:34.743Z,94.80
2018-01-25T07:21:02.238Z,94.80
2018-01-25T07:23:29.687Z,94.60
2018-01-25T07:25:57.124Z,94.60
2018-01-25T07:28:24.556Z,94.40
2018-01-25T07:30:52.004Z,94.40
2018-01-25T07:33:20.207Z,94.30
2018-01-25T07:35:47.683Z,94.30
2018-01-25T07:38:15.113Z,94.30
2018-01-25T07:40:42.539Z,94.50
2018-01-25T07:43:10.743Z,94.60
2018-01-25T07:45:38.168Z,94.60
2018-01-25T07:48:06.392Z,94.90
2018-01-25T07:50:33.825Z,94.90
2018-01-25T07:53:01.261Z,95.20
2018-01-25T07:55:29.461Z,95.50
2018-01-25T08:00:54.110Z,95.40
2018-01-25T08:03:21.546Z,95.60
2018-01-25T08:05:48.976Z,95.50
2018-01-25T08:08:17.185Z,95.70
2018-01-25T08:10:44.785Z,95.70
2018-01-25T08:13:32.949Z,95.50
2018-01-25T08:16:06.786Z,96.10
2018-01-25T08:18:34.209Z,96.10
2018-01-25T08:21:02.404Z,95.00
2018-01-25T08:23:29.835Z,95.00
2018-01-25T08:25:58.062Z,95.10
2018-01-25T08:28:25.496Z,95.10
2018-01-25T08:30:52.950Z,95.50
2018-01-25T08:33:20.389Z,95.30
2018-01-25T08:35:48.589Z,95.50
2018-01-25T08:38:16.024Z,95.50
2018-01-25T08:40:45.145Z,94.50
2018-01-25T08:43:12.633Z,94.50
2018-01-25T08:45:40.776Z,94.60
2018-01-25T08:48:08.204Z,94.60
2018-01-25T08:50:36.414Z,95.00
2018-01-25T08:53:04.310Z,95.00
2018-01-25T08:55:31.765Z,95.40
2018-01-25T08:57:59.208Z,95.40
2018-01-25T09:00:26.632Z,95.40
2018-01-25T09:02:54.833Z,94.90
2018-01-25T09:05:22.268Z,94.90
2018-01-25T09:07:49.704Z,95.10
2018-01-25T09:10:17.908Z,94.90
2018-01-25T09:12:45.377Z,94.60
2018-01-25T09:15:12.820Z,94.80
2018-01-25T09:17:40.276Z,94.60
2018-01-25T09:20:08.477Z,95.00
2018-01-25T09:22:35.916Z,95.00
2018-01-25T09:25:04.136Z,94.80
2018-01-25T09:27:31.568Z,94.80
2018-01-25T09:29:59.000Z,94.80
2018-01-25T09:32:26.485Z,94.30
2018-01-25T09:34:54.650Z,94.70
2018-01-25T09:37:22.090Z,94.70
2018-01-25T09:39:49.608Z,94.60
2018-01-25T09:42:17.028Z,94.20
2018-01-25T09:44:45.022Z,94.30
2018-01-25T09:47:12.464Z,94.00
2018-01-25T09:49:39.908Z,94.50
2018-01-25T09:52:07.341Z,94.80
2018-01-25T09:54:35.539Z,95.00
2018-01-25T09:57:02.984Z,95.00
2018-01-25T09:59:30.427Z,94.40
2018-01-25T10:01:58.619Z,95.10
2018-01-25T10:04:26.067Z,95.10
2018-01-25T10:06:53.510Z,94.90
2018-01-25T10:09:21.700Z,94.80
2018-01-25T10:11:49.128Z,94.60
2018-01-25T10:14:16.584Z,94.60
2018-01-25T10:16:44.932Z,94.80
2018-01-25T10:19:12.373Z,94.60
2018-01-25T10:21:39.817Z,94.50
2018-01-25T10:24:07.246Z,94.00
2018-01-25T10:26:35.442Z,93.60
2018-01-25T10:29:02.872Z,93.60
2018-01-25T10:31:31.264Z,93.90
2018-01-25T10:33:59.471Z,93.60
2018-01-25T10:36:26.910Z,93.60
2018-01-25T10:38:54.620Z,93.60
2018-01-25T10:41:22.053Z,93.70
2018-01-25T10:43:49.509Z,93.80
2018-01-25T10:46:16.916Z,93.70
2018-01-25T10:48:45.056Z,93.70
2018-01-25T10:51:12.500Z,93.90
2018-01-25T10:53:39.921Z,93.70
2018-01-25T10:56:08.145Z,93.80
2018-01-25T10:58:35.583Z,93.70
2018-01-25T11:01:08.792Z,93.80
2018-01-25T11:03:36.278Z,93.00
2018-01-25T11:06:03.707Z,92.70
2018-01-25T11:08:31.176Z,92.60
2018-01-25T11:10:58.631Z,92.50
2018-01-25T11:13:26.065Z,92.30
2018-01-25T11:15:53.534Z,92.10
2018-01-25T11:18:20.968Z,92.20
2018-01-25T11:20:48.396Z,92.10
2018-01-25T11:23:16.599Z,91.90
2018-01-25T11:25:45.721Z,91.60
2018-01-25T11:28:13.157Z,91.60
2018-01-25T11:30:40.593Z,91.30
2018-01-25T11:33:08.833Z,91.40
2018-01-25T11:35:36.257Z,91.40
2018-01-25T11:38:03.712Z,91.70
2018-01-25T11:40:31.152Z,91.30
2018-01-25T11:42:58.579Z,91.70
2018-01-25T11:45:26.022Z,91.30
2018-01-25T11:47:53.444Z,91.20
2018-01-25T11:50:20.922Z,91.00
2018-01-25T11:52:48.347Z,91.00
2018-01-25T11:55:15.778Z,91.40
2018-01-25T11:57:43.994Z,90.90
2018-01-25T12:00:11.417Z,90.80
2018-01-25T12:02:39.609Z,90.10
2018-01-25T12:05:07.103Z,90.10
2018-01-25T12:07:34.511Z,90.50
2018-01-25T12:10:01.949Z,90.40
2018-01-25T12:12:30.144Z,88.50
2018-01-25T12:14:58.344Z,87.90
2018-01-25T12:17:25.813Z,87.70
2018-01-25T12:19:53.237Z,89.00
2018-01-25T12:22:20.679Z,89.10
2018-01-25T12:24:48.916Z,89.20
2018-01-25T12:27:16.348Z,89.10
2018-01-25T12:29:43.805Z,87.80
2018-01-25T12:32:11.253Z,88.40
2018-01-25T12:34:38.675Z,87.90
2018-01-25T12:37:06.910Z,87.30
2018-01-25T12:39:34.352Z,87.30
2018-01-25T12:42:01.792Z,88.60
2018-01-25T12:44:29.217Z,87.40
2018-01-25T12:46:56.652Z,85.90
2018-01-25T12:49:24.080Z,86.20
2018-01-25T12:51:51.528Z,86.70
2018-01-25T12:54:18.960Z,87.20
2018-01-25T12:56:47.186Z,85.50
2018-01-25T12:59:15.378Z,85.80
2018-01-25T13:01:42.829Z,85.80
2018-01-25T13:04:10.277Z,85.40
2018-01-25T13:06:37.726Z,85.60
2018-01-25T13:09:05.181Z,85.60
2018-01-25T13:11:32.636Z,85.60
2018-01-25T13:14:00.056Z,84.10
2018-01-25T13:16:28.284Z,86.50
2018-01-25T13:18:55.712Z,86.50
2018-01-25T13:21:23.136Z,85.50
2018-01-25T13:23:51.340Z,87.00
2018-01-25T13:26:18.800Z,86.10
2018-01-25T13:28:46.235Z,86.20
2018-01-25T13:31:14.441Z,85.50
2018-01-25T13:33:42.713Z,85.50
2018-01-25T13:36:10.163Z,86.40
2018-01-25T13:38:37.609Z,85.70
2018-01-25T13:41:05.820Z,84.60
2018-01-25T13:43:33.575Z,84.60
2018-01-25T13:46:01.096Z,86.60
2018-01-25T13:48:29.314Z,87.70
2018-01-25T13:50:56.727Z,87.70
2018-01-25T13:53:24.942Z,88.10
2018-01-25T13:55:52.384Z,88.00
2018-01-25T13:58:19.834Z,87.00
2018-01-25T14:00:47.269Z,86.90
2018-01-25T14:03:14.720Z,86.60
2018-01-25T14:05:42.160Z,86.60
2018-01-25T14:08:09.594Z,86.90
2018-01-25T14:10:37.044Z,86.90
2018-01-25T14:13:04.482Z,88.00
2018-01-25T14:15:32.695Z,87.60
2018-01-25T14:18:00.992Z,86.90
2018-01-25T14:20:28.429Z,86.80
2018-01-25T14:22:55.866Z,86.60
2018-01-25T14:25:23.296Z,86.00
2018-01-25T14:27:51.487Z,86.60
2018-01-25T14:30:18.928Z,86.60
2018-01-25T14:32:47.332Z,87.20
2018-01-25T14:35:14.752Z,87.10
2018-01-25T14:37:42.956Z,87.30
2018-01-25T14:40:10.397Z,87.20
2018-01-25T14:42:38.636Z,88.20
2018-01-25T14:45:06.077Z,88.20
2018-01-25T14:47:33.527Z,87.50
2018-01-25T14:50:00.982Z,87.50
2018-01-25T14:52:28.431Z,88.40
2018-01-25T14:54:55.895Z,87.70
2018-01-25T14:57:23.333Z,87.80
2018-01-25T14:59:50.765Z,88.20
2018-01-25T15:02:18.962Z,89.00
2018-01-25T15:04:46.397Z,89.00
2018-01-25T15:07:14.602Z,89.90
2018-01-25T15:09:42.051Z,89.90
2018-01-25T15:12:10.269Z,89.60
2018-01-25T15:14:37.706Z,89.60
2018-01-25T15:17:05.149Z,89.70
2018-01-25T15:19:32.617Z,90.00
2018-01-25T15:22:00.040Z,90.00
2018-01-25T15:24:28.232Z,90.80
2018-01-25T15:26:55.668Z,90.40
2018-01-25T15:29:23.965Z,90.60
2018-01-25T15:31:51.414Z,90.60
2018-01-25T15:34:19.645Z,91.30
2018-01-25T15:36:47.077Z,91.30
2018-01-25T15:39:14.528Z,91.30
2018-01-25T15:41:41.956Z,91.30
2018-01-25T15:44:10.171Z,91.70
2018-01-25T15:46:37.621Z,91.70
2018-01-25T15:49:05.049Z,92.50
2018-01-25T15:51:33.249Z,92.10
2018-01-25T15:54:00.694Z,92.10
2018-01-25T15:56:28.125Z,92.40
2018-01-25T15:58:55.581Z,91.90
2018-01-25T16:01:23.780Z,91.80
2018-01-25T16:03:51.246Z,91.80
2018-01-25T16:06:18.700Z,91.60
2018-01-25T16:08:46.140Z,91.60
2018-01-25T16:11:14.364Z,91.60
2018-01-25T16:13:41.805Z,91.60
2018-01-25T16:16:09.262Z,91.70
2018-01-25T16:18:36.729Z,91.80
2018-01-25T16:21:04.159Z,91.50
2018-01-25T16:23:31.594Z,91.40
2018-01-25T16:25:59.836Z,91.20
2018-01-25T16:28:29.172Z,91.20
2018-01-25T16:30:57.416Z,91.50
2018-01-25T16:33:24.949Z,91.50
2018-01-25T16:35:52.379Z,91.20
2018-01-25T16:38:20.611Z,91.10
2018-01-25T16:40:48.056Z,91.00
2018-01-25T16:43:15.507Z,90.90
2018-01-25T16:45:42.944Z,90.90
2018-01-25T16:48:10.428Z,90.90
2018-01-25T16:50:37.908Z,90.60
2018-01-25T16:53:05.360Z,90.70
2018-01-25T16:55:32.806Z,91.00
2018-01-25T16:58:00.248Z,91.50
2018-01-25T17:00:27.700Z,91.10
2018-01-25T17:02:55.151Z,90.70
2018-01-25T17:05:22.596Z,90.50
2018-01-25T17:07:50.781Z,90.80
2018-01-25T17:10:18.212Z,90.80
2018-01-25T17:12:45.845Z,90.80
2018-01-25T17:15:13.296Z,90.80
2018-01-25T17:17:40.774Z,91.30
2018-01-25T17:20:08.208Z,91.40
2018-01-25T17:22:35.632Z,91.60
2018-01-25T17:25:03.136Z,91.70
2018-01-25T17:27:30.576Z,91.90
2018-01-25T17:29:58.071Z,92.30
2018-01-25T17:32:25.488Z,92.60
2018-01-25T17:34:52.932Z,92.60
2018-01-25T17:37:20.385Z,92.00
2018-01-25T17:39:47.824Z,91.70
2018-01-25T17:42:15.261Z,92.10
2018-01-25T17:44:43.515Z,91.70
2018-01-25T17:47:10.944Z,91.60
2018-01-25T17:49:38.393Z,91.70
2018-01-25T17:52:05.933Z,91.60
2018-01-25T17:54:34.117Z,92.00
2018-01-25T17:57:01.561Z,91.90
2018-01-25T17:59:29.000Z,92.30
2018-01-25T18:01:57.212Z,92.00
2018-01-25T18:04:24.667Z,92.00
2018-01-25T18:06:52.108Z,92.00
2018-01-25T18:09:19.560Z,91.70
2018-01-25T18:11:47.759Z,91.90
2018-01-25T18:14:15.269Z,91.90
2018-01-25T18:16:42.693Z,91.70
2018-01-25T18:19:10.135Z,91.70
2018-01-25T18:21:37.568Z,91.60
2018-01-25T18:24:05.012Z,92.10
2018-01-25T18:26:33.372Z,92.20
2018-01-25T18:29:00.833Z,92.20
2018-01-25T18:31:28.276Z,92.60
2018-01-25T18:33:55.756Z,92.50
2018-01-25T18:36:23.213Z,92.40
2018-01-25T18:38:51.416Z,92.80
2018-01-25T18:41:18.853Z,92.30
2018-01-25T18:43:47.057Z,93.20
2018-01-25T18:46:14.506Z,93.20
2018-01-25T18:48:42.697Z,93.20
2018-01-25T18:51:10.136Z,93.20
2018-01-25T18:53:38.339Z,93.20
2018-01-25T18:56:05.803Z,93.20
2018-01-25T18:58:33.236Z,94.10
2018-01-25T19:01:00.676Z,94.20
2018-01-25T19:03:28.142Z,94.30
2018-01-25T19:05:56.352Z,94.30
2018-01-25T19:08:23.793Z,94.20
2018-01-25T19:10:51.261Z,94.40
2018-01-25T19:13:18.702Z,94.60
2018-01-25T19:15:46.497Z,94.60
2018-01-25T19:18:13.969Z,94.80
2018-01-25T19:20:41.419Z,95.00
2018-01-25T19:23:08.870Z,95.30
2018-01-25T19:25:36.312Z,95.20
2018-01-25T19:28:03.745Z,95.30
2018-01-25T19:30:31.210Z,95.20
2018-01-25T19:32:58.644Z,94.70
2018-01-25T19:35:26.853Z,94.90
2018-01-25T19:37:54.312Z,94.80
2018-01-25T19:40:21.752Z,94.70
2018-01-25T19:42:49.188Z,95.20
2018-01-25T19:45:17.401Z,95.10
2018-01-25T19:47:44.863Z,95.10
2018-01-25T19:50:12.280Z,95.20
2018-01-25T19:52:40.489Z,94.80
2018-01-25T19:55:07.921Z,94.80
2018-01-25T19:57:36.162Z,95.20
2018-01-25T20:00:04.109Z,94.80
2018-01-25T20:02:31.677Z,94.60
2018-01-25T20:04:59.123Z,94.70
2018-01-25T20:07:26.634Z,94.40
2018-01-25T20:09:54.840Z,94.60
2018-01-25T20:12:22.284Z,94.50
2018-01-25T20:14:49.732Z,94.40
2018-01-25T20:17:17.194Z,94.60
2018-01-25T20:19:44.616Z,94.60
2018-01-25T20:22:12.046Z,94.50
2018-01-25T20:24:39.476Z,94.50
2018-01-25T20:27:07.018Z,94.60
2018-01-25T20:29:35.221Z,94.80
2018-01-25T20:32:02.667Z,94.80
2018-01-25T20:37:04.048Z,95.60
2018-01-25T20:39:31.472Z,95.90
2018-01-25T20:41:59.680Z,96.20
2018-01-25T20:44:27.129Z,96.20
2018-01-25T20:46:54.570Z,96.80
2018-01-25T20:49:22.000Z,96.50
2018-01-25T20:51:49.454Z,96.50
2018-01-25T20:54:16.890Z,96.20
2018-01-25T20:56:44.351Z,96.00
2018-01-25T20:59:11.784Z,95.90
2018-01-25T21:01:39.221Z,95.90
2018-01-25T21:04:06.664Z,96.00
2018-01-25T21:06:34.870Z,95.50
2018-01-25T21:09:02.488Z,95.50
2018-01-25T21:11:29.928Z,95.30
2018-01-25T21:13:57.457Z,95.30
2018-01-25T21:16:26.032Z,95.30
2018-01-25T21:18:53.482Z,95.30
2018-01-25T21:21:20.922Z,95.10
2018-01-25T21:23:48.356Z,95.00
2018-01-25T21:26:15.845Z,94.90
2018-01-25T21:28:43.298Z,95.00
2018-01-25T21:31:10.736Z,95.10
2018-01-25T21:33:38.976Z,95.00
2018-01-25T21:36:06.410Z,95.00
2018-01-25T21:38:33.852Z,94.90
2018-01-25T21:41:01.309Z,94.90
2018-01-25T21:43:28.769Z,94.60
2018-01-25T21:45:56.974Z,94.50
2018-01-25T21:48:24.409Z,94.40
2018-01-25T21:50:51.861Z,94.80
2018-01-25T21:53:19.312Z,95.00
2018-01-25T21:55:46.752Z,95.00
2018-01-25T21:58:14.963Z,94.70
2018-01-25T22:00:42.420Z,94.60
2018-01-25T22:03:09.859Z,94.50
2018-01-25T22:05:37.321Z,94.50
2018-01-25T22:08:05.508Z,94.70
2018-01-25T22:10:32.932Z,94.90
2018-01-25T22:13:01.145Z,95.00
2018-01-25T22:15:28.573Z,95.00
2018-01-25T22:17:56.028Z,95.00
2018-01-25T22:20:24.242Z,95.20
2018-01-25T22:22:51.673Z,95.10
2018-01-25T22:25:19.104Z,95.10
2018-01-25T22:27:47.333Z,95.40
2018-01-25T22:30:14.780Z,95.40
2018-01-25T22:32:42.224Z,95.40
2018-01-25T22:35:09.661Z,95.20
2018-01-25T22:37:37.882Z,94.80
2018-01-25T22:40:05.333Z,94.70
2018-01-25T22:42:32.783Z,94.90
2018-01-25T22:45:00.212Z,94.80
2018-01-25T22:47:28.417Z,94.80
2018-01-25T22:49:55.852Z,94.80
2018-01-25T22:52:23.313Z,94.60
2018-01-25T22:54:50.755Z,94.50
2018-01-25T22:57:18.940Z,94.60
2018-01-25T22:59:46.548Z,94.50
2018-01-25T23:02:13.980Z,94.60
2018-01-25T23:04:41.451Z,94.90
2018-01-25T23:07:08.880Z,94.90
2018-01-25T23:09:36.321Z,94.80
2018-01-25T23:12:04.532Z,94.60
2018-01-25T23:14:31.976Z,94.60
2018-01-25T23:17:00.167Z,94.40
2018-01-25T23:19:27.619Z,94.40
2018-01-25T23:21:55.056Z,94.40
2018-01-25T23:24:22.521Z,94.40
2018-01-25T23:26:49.964Z,94.40
2018-01-25T23:29:18.174Z,94.40
2018-01-25T23:31:47.313Z,94.40
2018-01-25T23:34:14.824Z,94.40
2018-01-25T23:36:42.240Z,94.60
2018-01-25T23:39:10.458Z,94.90
2018-01-25T23:41:37.889Z,94.90
2018-01-25T23:44:05.344Z,95.10
2018-01-25T23:46:32.781Z,95.50
2018-01-25T23:49:01.153Z,95.40
2018-01-25T23:51:28.608Z,95.30
2018-01-25T23:53:56.824Z,95.50
2018-01-25T23:56:24.260Z,95.40
2018-01-25T23:58:52.469Z,95.00
